sensor_id;sensor_type;location;lat;lon;timestamp;pressure;altitude;pressure_sealevel;temperature;humidity
70730;BME280;58315;53.336;55.932;2022-10-16T00:01:22;100691.56;;;11.09;54.97
70730;BME280;58315;53.336;55.932;2022-10-16T00:03:49;100698.50;;;10.99;55.30
70730;BME280;58315;53.336;55.932;2022-10-16T00:06:17;100696.81;;;10.98;55.30
70730;BME280;58315;53.336;55.932;2022-10-16T00:08:44;100703.16;;;10.96;55.48
70730;BME280;58315;53.336;55.932;2022-10-16T00:11:15;100701.66;;;11.04;55.50
70730;BME280;58315;53.336;55.932;2022-10-16T00:13:43;100704.00;;;10.96;55.54
70730;BME280;58315;53.336;55.932;2022-10-16T00:16:12;100718.94;;;10.97;55.71
70730;BME280;58315;53.336;55.932;2022-10-16T00:18:38;100708.56;;;10.94;55.76
70730;BME280;58315;53.336;55.932;2022-10-16T00:21:07;100713.41;;;11.00;55.67
70730;BME280;58315;53.336;55.932;2022-10-16T00:23:57;100711.53;;;11.14;55.35
70730;BME280;58315;53.336;55.932;2022-10-16T00:26:26;100713.34;;;11.13;55.31
70730;BME280;58315;53.336;55.932;2022-10-16T00:28:52;100715.84;;;11.15;55.21
70730;BME280;58315;53.336;55.932;2022-10-16T00:31:20;100722.84;;;11.16;55.54
70730;BME280;58315;53.336;55.932;2022-10-16T00:33:46;100724.31;;;11.20;55.45
70730;BME280;58315;53.336;55.932;2022-10-16T00:36:17;100717.00;;;11.23;55.46
70730;BME280;58315;53.336;55.932;2022-10-16T00:38:43;100725.03;;;11.22;55.31
70730;BME280;58315;53.336;55.932;2022-10-16T00:41:12;100718.66;;;11.24;55.15
70730;BME280;58315;53.336;55.932;2022-10-16T00:43:50;100719.72;;;11.22;55.35
70730;BME280;58315;53.336;55.932;2022-10-16T00:46:23;100723.78;;;11.15;55.86
70730;BME280;58315;53.336;55.932;2022-10-16T00:51:24;100730.84;;;11.03;56.36
70730;BME280;58315;53.336;55.932;2022-10-16T00:53:51;100723.97;;;11.00;56.27
70730;BME280;58315;53.336;55.932;2022-10-16T00:56:18;100716.66;;;11.04;56.52
70730;BME280;58315;53.336;55.932;2022-10-16T00:58:44;100725.72;;;11.13;56.25
70730;BME280;58315;53.336;55.932;2022-10-16T01:01:10;100730.34;;;10.98;56.22
70730;BME280;58315;53.336;55.932;2022-10-16T01:03:36;100729.00;;;10.92;56.49
70730;BME280;58315;53.336;55.932;2022-10-16T01:08:59;100738.59;;;10.93;56.99
70730;BME280;58315;53.336;55.932;2022-10-16T01:13:58;100740.75;;;10.88;57.17
70730;BME280;58315;53.336;55.932;2022-10-16T01:16:36;100734.63;;;10.88;57.25
70730;BME280;58315;53.336;55.932;2022-10-16T01:19:12;100741.72;;;10.87;57.40
70730;BME280;58315;53.336;55.932;2022-10-16T01:21:44;100744.22;;;10.89;57.17
70730;BME280;58315;53.336;55.932;2022-10-16T01:24:31;100746.31;;;10.96;57.14
70730;BME280;58315;53.336;55.932;2022-10-16T01:27:11;100748.59;;;10.90;57.49
70730;BME280;58315;53.336;55.932;2022-10-16T01:29:48;100754.03;;;10.75;57.76
70730;BME280;58315;53.336;55.932;2022-10-16T01:32:36;100755.91;;;10.86;57.59
70730;BME280;58315;53.336;55.932;2022-10-16T01:35:25;100751.75;;;10.82;57.57
70730;BME280;58315;53.336;55.932;2022-10-16T01:38:03;100750.66;;;10.73;57.89
70730;BME280;58315;53.336;55.932;2022-10-16T01:40:32;100755.81;;;10.75;58.00
70730;BME280;58315;53.336;55.932;2022-10-16T01:43:05;100757.59;;;10.87;57.76
70730;BME280;58315;53.336;55.932;2022-10-16T01:45:33;100762.66;;;10.90;57.66
70730;BME280;58315;53.336;55.932;2022-10-16T01:48:00;100754.72;;;10.90;57.50
70730;BME280;58315;53.336;55.932;2022-10-16T01:50:31;100762.31;;;10.95;57.35
70730;BME280;58315;53.336;55.932;2022-10-16T01:53:02;100760.06;;;11.01;57.48
70730;BME280;58315;53.336;55.932;2022-10-16T01:55:33;100767.03;;;11.02;57.54
70730;BME280;58315;53.336;55.932;2022-10-16T01:58:02;100765.22;;;11.03;57.49
70730;BME280;58315;53.336;55.932;2022-10-16T02:00:31;100763.19;;;11.06;57.40
70730;BME280;58315;53.336;55.932;2022-10-16T02:02:58;100761.31;;;11.08;57.53
70730;BME280;58315;53.336;55.932;2022-10-16T02:08:13;100764.44;;;11.14;57.79
70730;BME280;58315;53.336;55.932;2022-10-16T02:10:40;100765.28;;;11.14;57.37
70730;BME280;58315;53.336;55.932;2022-10-16T02:13:18;100764.00;;;11.20;57.57
70730;BME280;58315;53.336;55.932;2022-10-16T02:16:09;100766.75;;;11.18;57.58
70730;BME280;58315;53.336;55.932;2022-10-16T02:18:36;100770.69;;;11.13;57.82
70730;BME280;58315;53.336;55.932;2022-10-16T02:23:41;100771.41;;;11.15;57.46
70730;BME280;58315;53.336;55.932;2022-10-16T02:26:15;100777.63;;;11.26;57.48
70730;BME280;58315;53.336;55.932;2022-10-16T02:28:52;100777.72;;;11.25;57.25
70730;BME280;58315;53.336;55.932;2022-10-16T02:31:25;100781.31;;;11.24;57.82
70730;BME280;58315;53.336;55.932;2022-10-16T02:33:54;100781.31;;;11.24;58.13
70730;BME280;58315;53.336;55.932;2022-10-16T02:36:25;100782.84;;;11.15;58.50
70730;BME280;58315;53.336;55.932;2022-10-16T02:38:52;100784.13;;;11.09;58.28
70730;BME280;58315;53.336;55.932;2022-10-16T02:41:21;100785.59;;;11.14;58.76
70730;BME280;58315;53.336;55.932;2022-10-16T02:43:47;100778.00;;;11.09;58.74
70730;BME280;58315;53.336;55.932;2022-10-16T02:46:13;100781.38;;;11.11;58.70
70730;BME280;58315;53.336;55.932;2022-10-16T02:48:39;100784.97;;;11.10;58.84
70730;BME280;58315;53.336;55.932;2022-10-16T02:51:05;100793.31;;;11.17;59.23
70730;BME280;58315;53.336;55.932;2022-10-16T02:53:31;100791.28;;;11.20;59.17
70730;BME280;58315;53.336;55.932;2022-10-16T02:55:56;100793.81;;;11.22;58.97
70730;BME280;58315;53.336;55.932;2022-10-16T02:58:22;100795.84;;;11.18;58.93
70730;BME280;58315;53.336;55.932;2022-10-16T03:00:49;100802.94;;;11.18;59.07
70730;BME280;58315;53.336;55.932;2022-10-16T03:03:14;100810.78;;;11.19;59.27
70730;BME280;58315;53.336;55.932;2022-10-16T03:05:43;100801.03;;;11.20;59.48
70730;BME280;58315;53.336;55.932;2022-10-16T03:08:09;100805.34;;;11.21;59.54
70730;BME280;58315;53.336;55.932;2022-10-16T03:10:35;100810.88;;;11.18;59.25
70730;BME280;58315;53.336;55.932;2022-10-16T03:13:01;100811.63;;;11.20;59.46
70730;BME280;58315;53.336;55.932;2022-10-16T03:15:27;100816.22;;;11.29;59.13
70730;BME280;58315;53.336;55.932;2022-10-16T03:17:54;100815.56;;;11.38;58.94
70730;BME280;58315;53.336;55.932;2022-10-16T03:20:20;100819.88;;;11.39;58.48
70730;BME280;58315;53.336;55.932;2022-10-16T03:22:46;100820.63;;;11.41;58.25
70730;BME280;58315;53.336;55.932;2022-10-16T03:25:12;100821.91;;;11.35;58.40
70730;BME280;58315;53.336;55.932;2022-10-16T03:27:38;100821.44;;;11.18;58.71
70730;BME280;58315;53.336;55.932;2022-10-16T03:30:05;100820.88;;;11.25;59.29
70730;BME280;58315;53.336;55.932;2022-10-16T03:32:31;100828.03;;;11.36;59.32
70730;BME280;58315;53.336;55.932;2022-10-16T03:34:57;100827.19;;;11.35;59.16
70730;BME280;58315;53.336;55.932;2022-10-16T03:37:23;100832.50;;;11.35;58.89
70730;BME280;58315;53.336;55.932;2022-10-16T03:39:49;100831.44;;;11.38;59.14
70730;BME280;58315;53.336;55.932;2022-10-16T03:42:15;100830.34;;;11.41;59.27
70730;BME280;58315;53.336;55.932;2022-10-16T03:44:41;100831.81;;;11.45;59.15
70730;BME280;58315;53.336;55.932;2022-10-16T03:47:07;100828.59;;;11.52;58.58
70730;BME280;58315;53.336;55.932;2022-10-16T03:49:33;100837.47;;;11.51;58.82
70730;BME280;58315;53.336;55.932;2022-10-16T03:51:59;100839.28;;;11.51;58.36
70730;BME280;58315;53.336;55.932;2022-10-16T03:54:24;100838.91;;;11.44;58.64
70730;BME280;58315;53.336;55.932;2022-10-16T03:56:50;100846.59;;;11.47;58.73
70730;BME280;58315;53.336;55.932;2022-10-16T03:59:17;100842.94;;;11.37;59.45
70730;BME280;58315;53.336;55.932;2022-10-16T04:01:43;100846.69;;;11.34;59.36
70730;BME280;58315;53.336;55.932;2022-10-16T04:04:09;100848.16;;;11.39;59.16
70730;BME280;58315;53.336;55.932;2022-10-16T04:06:35;100854.91;;;11.43;59.31
70730;BME280;58315;53.336;55.932;2022-10-16T04:09:01;100849.72;;;11.41;59.40
70730;BME280;58315;53.336;55.932;2022-10-16T04:11:27;100858.13;;;11.35;59.46
70730;BME280;58315;53.336;55.932;2022-10-16T04:13:53;100855.25;;;11.38;59.10
70730;BME280;58315;53.336;55.932;2022-10-16T04:16:19;100856.19;;;11.37;59.21
70730;BME280;58315;53.336;55.932;2022-10-16T04:18:45;100856.88;;;11.28;59.59
70730;BME280;58315;53.336;55.932;2022-10-16T04:21:11;100863.38;;;11.11;60.11
70730;BME280;58315;53.336;55.932;2022-10-16T04:23:37;100865.19;;;11.10;60.18
70730;BME280;58315;53.336;55.932;2022-10-16T04:26:03;100867.25;;;11.18;60.00
70730;BME280;58315;53.336;55.932;2022-10-16T04:28:29;100869.34;;;11.26;60.26
70730;BME280;58315;53.336;55.932;2022-10-16T04:30:55;100869.09;;;11.42;60.03
70730;BME280;58315;53.336;55.932;2022-10-16T04:33:21;100872.38;;;11.45;59.46
70730;BME280;58315;53.336;55.932;2022-10-16T04:35:47;100874.25;;;11.43;59.84
70730;BME280;58315;53.336;55.932;2022-10-16T04:38:13;100881.16;;;11.46;59.78
70730;BME280;58315;53.336;55.932;2022-10-16T04:40:41;100879.56;;;11.43;59.85
70730;BME280;58315;53.336;55.932;2022-10-16T04:43:07;100877.94;;;11.53;59.85
70730;BME280;58315;53.336;55.932;2022-10-16T04:45:33;100886.16;;;11.62;59.53
70730;BME280;58315;53.336;55.932;2022-10-16T04:47:59;100889.53;;;11.64;59.60
70730;BME280;58315;53.336;55.932;2022-10-16T04:50:25;100891.84;;;11.68;59.43
70730;BME280;58315;53.336;55.932;2022-10-16T04:53:05;100895.53;;;11.66;59.49
70730;BME280;58315;53.336;55.932;2022-10-16T04:55:31;100897.97;;;11.69;59.51
70730;BME280;58315;53.336;55.932;2022-10-16T04:57:57;100897.75;;;11.72;59.41
70730;BME280;58315;53.336;55.932;2022-10-16T05:00:23;100894.75;;;11.76;59.34
70730;BME280;58315;53.336;55.932;2022-10-16T05:02:50;100904.06;;;11.82;59.42
70730;BME280;58315;53.336;55.932;2022-10-16T05:05:16;100897.31;;;11.78;58.97
70730;BME280;58315;53.336;55.932;2022-10-16T05:07:45;100898.09;;;11.67;59.73
70730;BME280;58315;53.336;55.932;2022-10-16T05:10:11;100904.22;;;11.68;59.95
70730;BME280;58315;53.336;55.932;2022-10-16T05:12:37;100898.59;;;11.72;59.57
70730;BME280;58315;53.336;55.932;2022-10-16T05:15:04;100910.25;;;11.70;60.03
70730;BME280;58315;53.336;55.932;2022-10-16T05:17:33;100905.25;;;11.78;59.83
70730;BME280;58315;53.336;55.932;2022-10-16T05:19:58;100908.28;;;11.61;59.70
70730;BME280;58315;53.336;55.932;2022-10-16T05:22:25;100907.72;;;11.68;59.57
70730;BME280;58315;53.336;55.932;2022-10-16T05:24:51;100915.53;;;11.70;59.53
70730;BME280;58315;53.336;55.932;2022-10-16T05:27:17;100913.81;;;11.81;59.59
70730;BME280;58315;53.336;55.932;2022-10-16T05:29:48;100911.72;;;11.74;59.32
70730;BME280;58315;53.336;55.932;2022-10-16T05:32:16;100925.84;;;11.62;59.43
70730;BME280;58315;53.336;55.932;2022-10-16T05:34:43;100926.19;;;11.57;59.63
70730;BME280;58315;53.336;55.932;2022-10-16T05:37:09;100929.25;;;11.64;59.73
70730;BME280;58315;53.336;55.932;2022-10-16T05:39:35;100918.72;;;11.75;59.46
70730;BME280;58315;53.336;55.932;2022-10-16T05:42:02;100927.88;;;11.82;59.58
70730;BME280;58315;53.336;55.932;2022-10-16T05:44:28;100927.16;;;11.80;59.33
70730;BME280;58315;53.336;55.932;2022-10-16T05:46:54;100927.16;;;11.80;59.17
70730;BME280;58315;53.336;55.932;2022-10-16T05:49:20;100927.56;;;11.87;59.31
70730;BME280;58315;53.336;55.932;2022-10-16T05:51:46;100928.06;;;11.92;59.01
70730;BME280;58315;53.336;55.932;2022-10-16T05:54:12;100934.94;;;11.94;59.17
70730;BME280;58315;53.336;55.932;2022-10-16T05:56:38;100938.56;;;11.80;59.77
70730;BME280;58315;53.336;55.932;2022-10-16T05:59:05;100928.69;;;11.71;60.23
70730;BME280;58315;53.336;55.932;2022-10-16T06:01:31;100932.28;;;11.70;60.42
70730;BME280;58315;53.336;55.932;2022-10-16T06:03:59;100941.91;;;11.71;60.24
70730;BME280;58315;53.336;55.932;2022-10-16T06:06:26;100941.22;;;11.80;60.30
70730;BME280;58315;53.336;55.932;2022-10-16T06:08:54;100943.41;;;11.63;60.54
70730;BME280;58315;53.336;55.932;2022-10-16T06:11:23;100944.38;;;11.62;60.62
70730;BME280;58315;53.336;55.932;2022-10-16T06:13:54;100946.31;;;11.59;60.56
70730;BME280;58315;53.336;55.932;2022-10-16T06:16:23;100952.53;;;11.58;60.85
70730;BME280;58315;53.336;55.932;2022-10-16T06:18:51;100955.75;;;11.51;60.91
70730;BME280;58315;53.336;55.932;2022-10-16T06:21:19;100950.41;;;11.40;60.92
70730;BME280;58315;53.336;55.932;2022-10-16T06:23:46;100954.22;;;11.35;60.87
70730;BME280;58315;53.336;55.932;2022-10-16T06:26:14;100955.06;;;11.36;60.88
70730;BME280;58315;53.336;55.932;2022-10-16T06:28:41;100963.41;;;11.43;60.47
70730;BME280;58315;53.336;55.932;2022-10-16T06:31:09;100954.91;;;11.26;60.27
70730;BME280;58315;53.336;55.932;2022-10-16T06:33:36;100959.94;;;11.29;60.40
70730;BME280;58315;53.336;55.932;2022-10-16T06:36:10;100965.72;;;11.47;60.55
70730;BME280;58315;53.336;55.932;2022-10-16T06:38:37;100969.69;;;11.29;60.84
70730;BME280;58315;53.336;55.932;2022-10-16T06:41:04;100961.19;;;11.37;60.71
70730;BME280;58315;53.336;55.932;2022-10-16T06:43:31;100968.81;;;11.41;60.35
70730;BME280;58315;53.336;55.932;2022-10-16T06:45:59;100964.78;;;11.48;60.08
70730;BME280;58315;53.336;55.932;2022-10-16T06:48:26;100976.16;;;11.62;59.84
70730;BME280;58315;53.336;55.932;2022-10-16T06:51:02;100976.34;;;11.71;59.63
70730;BME280;58315;53.336;55.932;2022-10-16T06:53:31;100981.81;;;11.81;59.49
70730;BME280;58315;53.336;55.932;2022-10-16T06:55:57;100979.78;;;11.85;59.17
70730;BME280;58315;53.336;55.932;2022-10-16T06:58:23;100977.16;;;11.85;59.31
70730;BME280;58315;53.336;55.932;2022-10-16T07:00:55;100981.44;;;11.98;58.93
70730;BME280;58315;53.336;55.932;2022-10-16T07:03:21;100975.47;;;11.83;58.85
70730;BME280;58315;53.336;55.932;2022-10-16T07:05:48;100989.88;;;11.79;58.88
70730;BME280;58315;53.336;55.932;2022-10-16T07:08:14;100989.78;;;11.81;58.55
70730;BME280;58315;53.336;55.932;2022-10-16T07:10:40;100979.06;;;11.82;58.43
70730;BME280;58315;53.336;55.932;2022-10-16T07:13:06;100982.22;;;11.88;58.64
70730;BME280;58315;53.336;55.932;2022-10-16T07:15:33;100987.91;;;11.94;58.68
70730;BME280;58315;53.336;55.932;2022-10-16T07:18:00;100989.78;;;12.05;58.74
70730;BME280;58315;53.336;55.932;2022-10-16T07:20:26;100991.81;;;12.25;58.48
70730;BME280;58315;53.336;55.932;2022-10-16T07:22:52;100988.31;;;12.25;57.33
70730;BME280;58315;53.336;55.932;2022-10-16T07:25:18;100991.41;;;12.19;57.31
70730;BME280;58315;53.336;55.932;2022-10-16T07:27:44;100989.81;;;12.16;57.51
70730;BME280;58315;53.336;55.932;2022-10-16T07:30:10;100998.28;;;12.21;57.09
70730;BME280;58315;53.336;55.932;2022-10-16T07:32:36;100990.28;;;12.10;56.84
70730;BME280;58315;53.336;55.932;2022-10-16T07:35:02;100992.13;;;12.21;57.12
70730;BME280;58315;53.336;55.932;2022-10-16T07:37:29;100996.84;;;12.28;57.16
70730;BME280;58315;53.336;55.932;2022-10-16T07:39:55;101001.69;;;12.35;57.03
70730;BME280;58315;53.336;55.932;2022-10-16T07:42:21;101009.56;;;12.36;57.07
70730;BME280;58315;53.336;55.932;2022-10-16T07:44:46;101000.97;;;12.33;56.92
70730;BME280;58315;53.336;55.932;2022-10-16T07:47:12;101005.00;;;12.49;57.21
70730;BME280;58315;53.336;55.932;2022-10-16T07:49:38;101003.34;;;12.60;56.97
70730;BME280;58315;53.336;55.932;2022-10-16T07:52:04;101000.91;;;12.57;56.84
70730;BME280;58315;53.336;55.932;2022-10-16T07:54:30;101005.53;;;12.66;57.05
70730;BME280;58315;53.336;55.932;2022-10-16T07:56:58;100998.66;;;12.74;55.95
70730;BME280;58315;53.336;55.932;2022-10-16T07:59:24;101007.44;;;12.64;56.13
70730;BME280;58315;53.336;55.932;2022-10-16T08:01:49;101002.66;;;12.80;56.26
70730;BME280;58315;53.336;55.932;2022-10-16T08:04:15;101000.72;;;12.82;55.35
70730;BME280;58315;53.336;55.932;2022-10-16T08:06:41;101002.41;;;12.83;55.24
70730;BME280;58315;53.336;55.932;2022-10-16T08:09:08;100996.88;;;12.97;55.47
70730;BME280;58315;53.336;55.932;2022-10-16T08:11:34;101009.22;;;13.10;55.30
70730;BME280;58315;53.336;55.932;2022-10-16T08:14:00;100998.59;;;13.21;54.87
70730;BME280;58315;53.336;55.932;2022-10-16T08:16:26;100999.06;;;13.15;54.54
70730;BME280;58315;53.336;55.932;2022-10-16T08:18:52;101007.25;;;13.12;54.62
70730;BME280;58315;53.336;55.932;2022-10-16T08:21:20;101005.34;;;13.14;54.53
70730;BME280;58315;53.336;55.932;2022-10-16T08:23:47;100999.19;;;13.13;54.10
70730;BME280;58315;53.336;55.932;2022-10-16T08:26:13;100998.31;;;13.01;54.31
70730;BME280;58315;53.336;55.932;2022-10-16T08:28:39;100999.91;;;13.04;54.17
70730;BME280;58315;53.336;55.932;2022-10-16T08:33:32;100999.53;;;13.20;54.29
70730;BME280;58315;53.336;55.932;2022-10-16T08:36:01;100996.19;;;13.18;53.89
70730;BME280;58315;53.336;55.932;2022-10-16T08:38:27;100993.28;;;13.10;54.58
70730;BME280;58315;53.336;55.932;2022-10-16T08:40:57;100994.75;;;13.25;54.30
70730;BME280;58315;53.336;55.932;2022-10-16T08:43:42;100997.78;;;13.32;54.08
70730;BME280;58315;53.336;55.932;2022-10-16T08:46:24;101000.53;;;13.41;54.12
70730;BME280;58315;53.336;55.932;2022-10-16T08:48:57;100994.13;;;13.44;53.36
70730;BME280;58315;53.336;55.932;2022-10-16T08:51:27;100999.81;;;13.39;53.42
70730;BME280;58315;53.336;55.932;2022-10-16T08:56:46;101000.19;;;13.46;53.71
70730;BME280;58315;53.336;55.932;2022-10-16T08:59:13;101000.50;;;13.52;53.78
70730;BME280;58315;53.336;55.932;2022-10-16T09:01:45;101001.34;;;13.19;52.87
70730;BME280;58315;53.336;55.932;2022-10-16T09:07:16;101003.06;;;13.09;53.32
70730;BME280;58315;53.336;55.932;2022-10-16T09:09:54;101002.47;;;13.06;53.37
70730;BME280;58315;53.336;55.932;2022-10-16T09:12:35;101004.13;;;13.18;53.29
70730;BME280;58315;53.336;55.932;2022-10-16T09:18:12;101009.72;;;13.26;52.30
70730;BME280;58315;53.336;55.932;2022-10-16T09:20:38;101012.09;;;13.51;52.79
70730;BME280;58315;53.336;55.932;2022-10-16T09:23:14;101013.19;;;13.71;52.45
70730;BME280;58315;53.336;55.932;2022-10-16T09:25:48;101007.94;;;13.81;51.53
70730;BME280;58315;53.336;55.932;2022-10-16T09:28:17;101016.13;;;13.89;52.10
70730;BME280;58315;53.336;55.932;2022-10-16T09:30:45;101010.84;;;13.78;51.55
70730;BME280;58315;53.336;55.932;2022-10-16T09:33:12;101013.75;;;13.86;50.99
70730;BME280;58315;53.336;55.932;2022-10-16T09:35:41;101012.31;;;13.71;50.04
70730;BME280;58315;53.336;55.932;2022-10-16T09:38:21;101012.31;;;13.82;50.66
70730;BME280;58315;53.336;55.932;2022-10-16T09:40:47;101015.72;;;13.62;50.73
70730;BME280;58315;53.336;55.932;2022-10-16T09:43:24;101010.41;;;13.62;50.63
70730;BME280;58315;53.336;55.932;2022-10-16T09:49:18;101024.25;;;13.77;50.58
70730;BME280;58315;53.336;55.932;2022-10-16T09:51:49;101020.78;;;13.65;50.45
70730;BME280;58315;53.336;55.932;2022-10-16T09:54:20;101022.94;;;13.82;50.85
70730;BME280;58315;53.336;55.932;2022-10-16T09:56:47;101024.41;;;13.64;50.48
70730;BME280;58315;53.336;55.932;2022-10-16T09:59:19;101025.13;;;13.66;50.38
70730;BME280;58315;53.336;55.932;2022-10-16T10:01:51;101032.09;;;13.78;51.20
70730;BME280;58315;53.336;55.932;2022-10-16T10:04:19;101027.91;;;13.75;50.55
70730;BME280;58315;53.336;55.932;2022-10-16T10:06:49;101036.72;;;13.65;50.54
70730;BME280;58315;53.336;55.932;2022-10-16T10:12:00;101024.72;;;13.82;50.39
70730;BME280;58315;53.336;55.932;2022-10-16T10:14:31;101026.31;;;13.73;50.65
70730;BME280;58315;53.336;55.932;2022-10-16T10:17:11;101030.56;;;13.64;50.00
70730;BME280;58315;53.336;55.932;2022-10-16T10:19:39;101035.88;;;13.64;50.25
70730;BME280;58315;53.336;55.932;2022-10-16T10:22:41;101030.56;;;13.75;50.27
70730;BME280;58315;53.336;55.932;2022-10-16T10:28:30;101027.19;;;13.62;50.19
70730;BME280;58315;53.336;55.932;2022-10-16T10:31:18;101032.13;;;13.56;50.30
70730;BME280;58315;53.336;55.932;2022-10-16T10:36:40;101038.78;;;13.50;50.54
70730;BME280;58315;53.336;55.932;2022-10-16T10:39:14;101036.03;;;13.29;50.64
70730;BME280;58315;53.336;55.932;2022-10-16T10:42:21;101037.59;;;13.32;50.79
70730;BME280;58315;53.336;55.932;2022-10-16T10:50:25;101049.59;;;13.02;51.73
70730;BME280;58315;53.336;55.932;2022-10-16T10:53:07;101047.91;;;13.01;51.75
70730;BME280;58315;53.336;55.932;2022-10-16T11:07:11;101056.59;;;12.92;52.63
70730;BME280;58315;53.336;55.932;2022-10-16T11:09:44;101060.81;;;12.94;52.70
70730;BME280;58315;53.336;55.932;2022-10-16T11:12:31;101063.34;;;13.07;52.54
70730;BME280;58315;53.336;55.932;2022-10-16T11:15:11;101063.81;;;13.01;52.16
70730;BME280;58315;53.336;55.932;2022-10-16T11:17:42;101067.03;;;12.82;52.63
70730;BME280;58315;53.336;55.932;2022-10-16T11:20:30;101066.03;;;12.72;52.04
70730;BME280;58315;53.336;55.932;2022-10-16T11:26:32;101074.47;;;12.66;52.47
70730;BME280;58315;53.336;55.932;2022-10-16T11:28:56;101070.63;;;12.70;52.41
70730;BME280;58315;53.336;55.932;2022-10-16T11:31:38;101064.38;;;12.82;52.41
70730;BME280;58315;53.336;55.932;2022-10-16T11:34:07;101071.97;;;12.75;52.34
70730;BME280;58315;53.336;55.932;2022-10-16T11:36:49;101077.25;;;12.75;52.61
70730;BME280;58315;53.336;55.932;2022-10-16T11:39:30;101081.75;;;12.86;53.00
70730;BME280;58315;53.336;55.932;2022-10-16T11:45:24;101081.16;;;12.83;52.63
70730;BME280;58315;53.336;55.932;2022-10-16T11:48:08;101073.81;;;12.86;52.64
70730;BME280;58315;53.336;55.932;2022-10-16T11:53:42;101077.56;;;12.84;52.48
70730;BME280;58315;53.336;55.932;2022-10-16T11:56:17;101081.53;;;12.89;52.91
70730;BME280;58315;53.336;55.932;2022-10-16T12:01:43;101080.94;;;12.97;52.59
70730;BME280;58315;53.336;55.932;2022-10-16T12:07:06;101081.28;;;12.92;53.28
70730;BME280;58315;53.336;55.932;2022-10-16T12:09:38;101084.91;;;12.91;53.22
70730;BME280;58315;53.336;55.932;2022-10-16T12:12:24;101087.81;;;12.99;53.12
70730;BME280;58315;53.336;55.932;2022-10-16T12:15:00;101083.97;;;13.03;53.23
70730;BME280;58315;53.336;55.932;2022-10-16T12:17:37;101088.06;;;12.96;52.93
70730;BME280;58315;53.336;55.932;2022-10-16T12:23:05;101090.38;;;13.12;52.55
70730;BME280;58315;53.336;55.932;2022-10-16T12:25:32;101089.50;;;13.00;52.84
70730;BME280;58315;53.336;55.932;2022-10-16T12:28:04;101082.53;;;12.99;52.48
70730;BME280;58315;53.336;55.932;2022-10-16T12:30:34;101086.97;;;12.99;52.79
70730;BME280;58315;53.336;55.932;2022-10-16T12:33:31;101092.19;;;13.12;52.77
70730;BME280;58315;53.336;55.932;2022-10-16T12:36:00;101091.31;;;13.00;53.11
70730;BME280;58315;53.336;55.932;2022-10-16T12:38:50;101077.72;;;13.16;52.59
70730;BME280;58315;53.336;55.932;2022-10-16T12:41:27;101096.56;;;13.13;51.85
70730;BME280;58315;53.336;55.932;2022-10-16T12:43:53;101087.38;;;13.06;52.00
70730;BME280;58315;53.336;55.932;2022-10-16T12:46:34;101089.28;;;13.15;51.94
70730;BME280;58315;53.336;55.932;2022-10-16T12:51:54;101075.38;;;12.89;51.41
70730;BME280;58315;53.336;55.932;2022-10-16T12:54:27;101084.69;;;12.94;51.33
70730;BME280;58315;53.336;55.932;2022-10-16T12:57:34;101088.03;;;12.85;51.10
70730;BME280;58315;53.336;55.932;2022-10-16T13:00:28;101085.00;;;12.78;51.29
70730;BME280;58315;53.336;55.932;2022-10-16T13:11:50;101093.50;;;12.60;52.12
70730;BME280;58315;53.336;55.932;2022-10-16T13:17:28;101091.69;;;12.60;51.91
70730;BME280;58315;53.336;55.932;2022-10-16T13:22:50;101094.50;;;12.46;52.50
70730;BME280;58315;53.336;55.932;2022-10-16T13:25:21;101094.88;;;12.41;52.35
70730;BME280;58315;53.336;55.932;2022-10-16T13:28:04;101102.38;;;12.47;52.63
70730;BME280;58315;53.336;55.932;2022-10-16T13:30:51;101099.53;;;12.38;52.47
70730;BME280;58315;53.336;55.932;2022-10-16T13:35:54;101109.66;;;12.33;52.68
70730;BME280;58315;53.336;55.932;2022-10-16T13:38:25;101103.09;;;12.25;53.08
70730;BME280;58315;53.336;55.932;2022-10-16T13:40:55;101114.34;;;12.29;53.01
70730;BME280;58315;53.336;55.932;2022-10-16T13:48:24;101115.34;;;12.15;53.82
70730;BME280;58315;53.336;55.932;2022-10-16T13:51:10;101115.59;;;12.23;53.28
70730;BME280;58315;53.336;55.932;2022-10-16T13:53:38;101125.53;;;12.09;53.59
70730;BME280;58315;53.336;55.932;2022-10-16T13:56:06;101126.66;;;12.17;53.67
70730;BME280;58315;53.336;55.932;2022-10-16T13:58:33;101130.31;;;12.27;53.61
70730;BME280;58315;53.336;55.932;2022-10-16T14:01:02;101132.13;;;12.27;53.53
70730;BME280;58315;53.336;55.932;2022-10-16T14:03:29;101136.72;;;12.25;53.77
70730;BME280;58315;53.336;55.932;2022-10-16T14:06:01;101136.16;;;12.33;53.19
70730;BME280;58315;53.336;55.932;2022-10-16T14:08:29;101144.53;;;12.26;53.42
70730;BME280;58315;53.336;55.932;2022-10-16T14:10:58;101143.78;;;12.24;53.64
70730;BME280;58315;53.336;55.932;2022-10-16T14:15:56;101145.66;;;12.35;53.21
70730;BME280;58315;53.336;55.932;2022-10-16T14:18:26;101146.34;;;12.26;53.35
70730;BME280;58315;53.336;55.932;2022-10-16T14:20:53;101152.91;;;12.33;53.02
70730;BME280;58315;53.336;55.932;2022-10-16T14:23:29;101155.44;;;12.35;53.12
70730;BME280;58315;53.336;55.932;2022-10-16T14:26:28;101150.97;;;12.35;53.21
70730;BME280;58315;53.336;55.932;2022-10-16T14:29:11;101151.09;;;12.34;53.79
70730;BME280;58315;53.336;55.932;2022-10-16T14:31:38;101149.97;;;12.25;54.00
70730;BME280;58315;53.336;55.932;2022-10-16T14:34:40;101158.97;;;12.22;53.85
70730;BME280;58315;53.336;55.932;2022-10-16T14:37:28;101154.84;;;12.18;53.84